Time;durP1;ratioP1;P1;durP2;ratioP2;P2;SDS_P1;SDS_P2;PMS_P1;PMS_P2;Temp;Humidity;BMP_temperature;BMP_pressure;BME280_temperature;BME280_humidity;BME280_pressure;Samples;Min_cycle;Max_cycle;Signal;HPM_P1;HPM_P2
2023/01/22 00:01:23;;;;;;;5.43;4.30;;;3.20;99.90;;;;;;5047919;28;20699;-73
2023/01/22 00:03:52;;;;;;;9.10;4.63;;;3.20;99.90;;;;;;5040960;28;20558;-74
2023/01/22 00:06:22;;;;;;;6.22;3.97;;;3.20;99.90;;;;;;5047870;28;20202;-74
2023/01/22 00:08:51;;;;;;;6.07;4.15;;;3.20;99.90;;;;;;5038296;28;20228;-74
2023/01/22 00:11:20;;;;;;;6.13;4.50;;;3.20;99.90;;;;;;5047857;28;20315;-74
2023/01/22 00:13:48;;;;;;;6.28;4.60;;;3.20;99.90;;;;;;5044876;28;20311;-74
2023/01/22 00:16:17;;;;;;;6.38;4.53;;;3.20;99.90;;;;;;5024352;28;20201;-74
2023/01/22 00:18:47;;;;;;;5.38;4.18;;;3.20;99.90;;;;;;5044539;28;20228;-74
2023/01/22 00:21:15;;;;;;;7.70;4.47;;;3.20;99.90;;;;;;5065450;28;20680;-74
2023/01/22 00:23:44;;;;;;;4.90;3.85;;;3.20;99.90;;;;;;5028940;28;20224;-75
2023/01/22 00:26:14;;;;;;;5.45;4.63;;;3.20;99.90;;;;;;5046121;28;20197;-73
2023/01/22 00:28:45;;;;;;;5.43;4.32;;;3.20;99.90;;;;;;5067200;28;20311;-74
2023/01/22 00:31:14;;;;;;;5.65;4.50;;;3.20;99.90;;;;;;5042375;28;20201;-75
2023/01/22 00:33:43;;;;;;;6.57;4.55;;;3.20;99.90;;;;;;5060890;28;20227;-74
2023/01/22 00:36:16;;;;;;;6.72;4.22;;;3.20;99.90;;;;;;5036244;28;20302;-74
2023/01/22 00:38:46;;;;;;;6.90;4.82;;;3.20;99.90;;;;;;5059578;28;20273;-74
2023/01/22 00:41:15;;;;;;;5.60;4.20;;;3.20;99.90;;;;;;5032868;28;20300;-74
2023/01/22 00:43:43;;;;;;;6.20;4.15;;;3.20;99.90;;;;;;5034229;28;20284;-74
2023/01/22 00:46:14;;;;;;;7.13;4.97;;;3.20;99.90;;;;;;5023325;28;20288;-74
2023/01/22 00:48:44;;;;;;;6.20;3.90;;;3.20;99.90;;;;;;5034426;28;20227;-74
2023/01/22 00:51:14;;;;;;;9.02;5.00;;;3.20;99.90;;;;;;5033158;28;20570;-74
2023/01/22 00:53:43;;;;;;;5.88;4.38;;;3.20;99.90;;;;;;5042690;28;20231;-74
2023/01/22 00:56:13;;;;;;;7.70;4.90;;;3.20;99.90;;;;;;5030982;28;20192;-74
2023/01/22 00:58:42;;;;;;;5.75;4.60;;;3.20;99.90;;;;;;5030312;28;20248;-74
2023/01/22 01:01:12;;;;;;;9.25;4.45;;;3.20;99.90;;;;;;5034169;28;20351;-74
2023/01/22 01:03:41;;;;;;;5.82;3.78;;;3.20;99.90;;;;;;5064941;28;20713;-75
2023/01/22 01:06:15;;;;;;;6.95;4.38;;;3.20;99.90;;;;;;5038004;28;20200;-75
2023/01/22 01:08:46;;;;;;;5.35;3.80;;;3.20;99.90;;;;;;5029517;28;20216;-75
2023/01/22 01:11:18;;;;;;;8.25;5.07;;;3.20;99.90;;;;;;5056413;28;20184;-74
2023/01/22 01:13:46;;;;;;;6.55;4.93;;;3.20;99.90;;;;;;5039064;28;20271;-74
2023/01/22 01:16:16;;;;;;;5.95;4.57;;;3.20;99.90;;;;;;5048762;28;20197;-74
2023/01/22 01:18:47;;;;;;;7.53;5.50;;;3.20;99.90;;;;;;5042820;28;20224;-74
2023/01/22 01:21:18;;;;;;;6.88;4.53;;;3.20;99.90;;;;;;5037123;28;20234;-73
2023/01/22 01:23:46;;;;;;;6.82;5.00;;;3.20;99.90;;;;;;5031997;28;20262;-73
2023/01/22 01:26:16;;;;;;;5.38;3.83;;;3.20;99.90;;;;;;5033862;28;20717;-75
2023/01/22 01:28:45;;;;;;;7.63;3.97;;;3.20;99.90;;;;;;5051230;28;20281;-74
2023/01/22 01:31:15;;;;;;;5.10;4.35;;;3.20;99.90;;;;;;5034357;28;20198;-73
2023/01/22 01:33:44;;;;;;;6.20;4.88;;;3.20;99.90;;;;;;5056044;28;20220;-74
2023/01/22 01:36:16;;;;;;;7.88;5.10;;;3.20;99.90;;;;;;5041495;28;20184;-74
2023/01/22 01:38:54;;;;;;;6.30;4.65;;;3.20;99.90;;;;;;5034525;28;20286;-75
2023/01/22 01:41:26;;;;;;;6.05;4.30;;;3.20;99.90;;;;;;5029554;28;20219;-75
2023/01/22 01:44:10;;;;;;;6.70;4.55;;;3.20;99.90;;;;;;5054764;28;20227;-74
2023/01/22 01:46:42;;;;;;;6.63;3.83;;;3.20;99.90;;;;;;5033727;28;20203;-75
2023/01/22 01:49:22;;;;;;;5.43;4.05;;;3.20;99.90;;;;;;5038094;28;20294;-73
2023/01/22 01:51:55;;;;;;;5.60;3.80;;;3.20;99.90;;;;;;5043485;28;20195;-74
2023/01/22 01:54:24;;;;;;;6.97;4.65;;;3.20;99.90;;;;;;5044899;28;20694;-74
2023/01/22 01:56:57;;;;;;;7.03;4.35;;;3.20;99.90;;;;;;5050519;28;20191;-74
2023/01/22 01:59:26;;;;;;;10.13;5.32;;;3.20;99.90;;;;;;5042404;28;20215;-74
2023/01/22 02:01:55;;;;;;;6.28;4.80;;;3.20;99.90;;;;;;5057104;28;20283;-73
2023/01/22 02:04:24;;;;;;;5.00;4.40;;;3.20;99.90;;;;;;5035558;28;20215;-74
2023/01/22 02:06:55;;;;;;;5.75;4.15;;;3.20;99.90;;;;;;5052680;28;20200;-74
2023/01/22 02:09:24;;;;;;;6.43;4.28;;;3.20;99.90;;;;;;5047542;28;20230;-74
2023/01/22 02:11:53;;;;;;;5.38;4.20;;;3.20;99.90;;;;;;5068008;28;20315;-74
2023/01/22 02:14:26;;;;;;;4.90;3.80;;;3.20;99.90;;;;;;5051090;28;20247;-74
2023/01/22 02:17:02;;;;;;;6.00;4.28;;;3.20;99.90;;;;;;5034963;28;20663;-76
2023/01/22 02:19:30;;;;;;;4.50;4.00;;;3.20;99.90;;;;;;5050897;28;20222;-74
2023/01/22 02:22:00;;;;;;;5.53;4.43;;;3.20;99.90;;;;;;5035910;28;20277;-75
2023/01/22 02:24:30;;;;;;;7.05;4.47;;;3.20;99.90;;;;;;5045032;28;20224;-75
2023/01/22 02:26:59;;;;;;;6.15;4.05;;;3.20;99.90;;;;;;5024467;28;20207;-74
2023/01/22 02:29:27;;;;;;;5.43;4.38;;;3.20;99.90;;;;;;5040234;28;20295;-74
2023/01/22 02:31:56;;;;;;;6.45;4.70;;;3.20;99.90;;;;;;5038394;28;20301;-75
2023/01/22 02:34:24;;;;;;;5.68;4.57;;;3.20;99.90;;;;;;5045461;28;20222;-75
2023/01/22 02:36:54;;;;;;;6.13;4.47;;;3.20;99.90;;;;;;5034626;28;20914;-75
2023/01/22 02:39:24;;;;;;;6.90;4.70;;;3.20;99.90;;;;;;5039552;28;20223;-74
2023/01/22 02:41:53;;;;;;;8.68;5.38;;;3.20;99.90;;;;;;5033968;28;20196;-75
2023/01/22 02:44:22;;;;;;;5.95;4.90;;;3.20;99.90;;;;;;5048043;28;20646;-74
2023/01/22 02:46:50;;;;;;;5.20;4.05;;;3.20;99.90;;;;;;5040616;28;20228;-74
2023/01/22 02:49:18;;;;;;;5.68;4.05;;;3.20;99.90;;;;;;5052020;28;20285;-75
2023/01/22 02:51:47;;;;;;;7.47;5.07;;;3.20;99.90;;;;;;5043481;28;20249;-74
2023/01/22 02:54:15;;;;;;;5.40;3.80;;;3.20;99.90;;;;;;5047121;28;20298;-75
2023/01/22 02:56:45;;;;;;;5.68;4.22;;;3.20;99.90;;;;;;5044820;28;20204;-74
2023/01/22 02:59:13;;;;;;;7.95;4.95;;;3.20;99.90;;;;;;5039451;28;21072;-74
2023/01/22 03:01:42;;;;;;;7.85;5.20;;;3.20;99.90;;;;;;5030401;28;20209;-74
2023/01/22 03:04:10;;;;;;;5.68;4.30;;;3.20;99.90;;;;;;5069325;28;20749;-74
2023/01/22 03:06:40;;;;;;;6.90;4.82;;;3.20;99.90;;;;;;5035670;28;20769;-74
2023/01/22 03:09:10;;;;;;;6.05;4.57;;;3.20;99.90;;;;;;5025731;28;20957;-74
2023/01/22 03:11:41;;;;;;;7.88;4.10;;;3.20;99.90;;;;;;5043775;28;20223;-75
2023/01/22 03:22:33;;;;;;;5.28;4.75;;;3.20;99.90;;;;;;5038960;28;20220;-75
2023/01/22 03:25:01;;;;;;;6.70;4.50;;;3.20;99.90;;;;;;5048608;28;20655;-74
2023/01/22 03:27:31;;;;;;;5.55;4.63;;;3.20;99.90;;;;;;5041638;28;20610;-73
2023/01/22 03:30:01;;;;;;;7.70;4.35;;;3.20;99.90;;;;;;5066330;28;20615;-75
2023/01/22 03:32:33;;;;;;;5.53;4.75;;;3.20;99.90;;;;;;5036450;28;20289;-74
2023/01/22 03:35:02;;;;;;;4.50;3.92;;;3.20;99.90;;;;;;5050382;28;20196;-74
2023/01/22 03:37:45;;;;;;;6.10;4.10;;;3.20;99.90;;;;;;5047587;28;20196;-74
2023/01/22 03:40:13;;;;;;;7.20;4.65;;;3.20;99.90;;;;;;5044488;28;20677;-74
2023/01/22 03:42:42;;;;;;;5.30;4.05;;;3.20;99.90;;;;;;5036344;28;20244;-74
2023/01/22 03:45:12;;;;;;;5.45;4.78;;;3.20;99.90;;;;;;5062628;28;20219;-75
2023/01/22 03:47:40;;;;;;;7.00;4.35;;;3.20;99.90;;;;;;5037551;28;20203;-74
2023/01/22 03:50:22;;;;;;;5.60;4.38;;;3.20;99.90;;;;;;5037627;28;20199;-74
2023/01/22 03:52:50;;;;;;;4.95;3.45;;;3.20;99.90;;;;;;5069207;28;20224;-74
2023/01/22 03:55:18;;;;;;;4.90;4.00;;;3.20;99.90;;;;;;5043087;28;20184;-74
2023/01/22 03:57:47;;;;;;;5.43;4.55;;;3.20;99.90;;;;;;5046875;28;20238;-74
2023/01/22 04:00:18;;;;;;;6.78;4.78;;;3.20;99.90;;;;;;5046144;28;20696;-75
2023/01/22 04:02:49;;;;;;;6.00;4.70;;;3.20;99.90;;;;;;5036415;28;20682;-74
2023/01/22 04:05:21;;;;;;;5.40;4.45;;;3.20;99.90;;;;;;5041871;28;20215;-74
2023/01/22 04:07:50;;;;;;;7.97;4.40;;;3.20;99.90;;;;;;5045167;28;20208;-75
2023/01/22 04:10:23;;;;;;;6.85;5.00;;;3.20;99.90;;;;;;5045377;28;20195;-75
2023/01/22 04:12:51;;;;;;;5.50;4.32;;;3.20;99.90;;;;;;5041361;28;20224;-74
2023/01/22 04:15:23;;;;;;;5.25;3.90;;;3.20;99.90;;;;;;5047263;28;20671;-74
2023/01/22 04:17:54;;;;;;;6.32;3.80;;;3.20;99.90;;;;;;5039013;28;20278;-74
2023/01/22 04:20:48;;;;;;;6.43;4.93;;;3.20;99.90;;;;;;5043758;28;20196;-75
2023/01/22 04:23:29;;;;;;;5.95;3.53;;;3.20;99.90;;;;;;5060452;28;20240;-73
2023/01/22 04:25:58;;;;;;;5.45;4.00;;;3.20;99.90;;;;;;5061429;28;20233;-74
2023/01/22 04:28:26;;;;;;;6.03;4.45;;;3.20;99.90;;;;;;5047080;28;20218;-75
2023/01/22 04:30:58;;;;;;;5.80;4.05;;;3.20;99.90;;;;;;5043021;28;20231;-74
2023/01/22 04:33:56;;;;;;;5.40;4.38;;;3.20;99.90;;;;;;5045787;28;20227;-75
2023/01/22 04:36:31;;;;;;;5.93;3.97;;;3.20;99.90;;;;;;5034385;28;20203;-75
2023/01/22 04:39:00;;;;;;;8.38;4.78;;;3.20;99.90;;;;;;5044351;28;20551;-73
2023/01/22 04:41:29;;;;;;;7.25;4.68;;;3.20;99.90;;;;;;5054828;28;20208;-74
2023/01/22 04:43:57;;;;;;;4.82;3.80;;;3.20;99.90;;;;;;5061556;28;20258;-74
2023/01/22 04:46:28;;;;;;;5.93;3.90;;;3.20;99.90;;;;;;5040132;28;20209;-75
2023/01/22 04:48:57;;;;;;;6.82;4.60;;;3.20;99.90;;;;;;5043274;28;20314;-75
2023/01/22 04:51:25;;;;;;;6.35;3.97;;;3.20;99.90;;;;;;5027683;28;20223;-74
2023/01/22 04:53:54;;;;;;;4.78;4.25;;;3.20;99.90;;;;;;5060548;28;20231;-72
2023/01/22 04:56:23;;;;;;;4.35;3.88;;;3.20;99.90;;;;;;5036204;28;20596;-74
2023/01/22 04:58:51;;;;;;;5.97;4.35;;;3.20;99.90;;;;;;5054993;28;20273;-74
2023/01/22 05:01:21;;;;;;;6.38;4.55;;;3.20;99.90;;;;;;5039719;28;20229;-74
2023/01/22 05:03:51;;;;;;;7.47;5.03;;;3.20;99.90;;;;;;5037656;28;20236;-73
2023/01/22 05:06:20;;;;;;;6.63;5.03;;;3.20;99.90;;;;;;5041884;28;20213;-75
2023/01/22 05:08:48;;;;;;;5.45;4.07;;;3.20;99.90;;;;;;5063337;28;20513;-75
2023/01/22 05:11:17;;;;;;;5.93;4.45;;;3.20;99.90;;;;;;5036740;28;20669;-75
2023/01/22 05:13:54;;;;;;;6.03;4.53;;;3.20;99.90;;;;;;5043596;28;20784;-74
2023/01/22 05:16:22;;;;;;;4.43;3.42;;;3.20;99.90;;;;;;5038256;28;20387;-74
2023/01/22 05:18:52;;;;;;;6.22;4.60;;;3.20;99.90;;;;;;5043319;28;20274;-74
2023/01/22 05:21:20;;;;;;;5.65;3.95;;;3.20;99.90;;;;;;5043925;28;20188;-74
2023/01/22 05:23:49;;;;;;;7.40;4.85;;;3.20;99.90;;;;;;5041968;28;20237;-75
2023/01/22 05:26:17;;;;;;;4.60;3.70;;;3.20;99.90;;;;;;5031968;28;20257;-75
2023/01/22 05:28:54;;;;;;;5.95;4.70;;;3.20;99.90;;;;;;5034604;28;20219;-73
2023/01/22 05:31:30;;;;;;;7.00;4.32;;;3.20;99.90;;;;;;5024662;28;20201;-74
2023/01/22 05:34:08;;;;;;;6.30;4.35;;;3.20;99.90;;;;;;5027534;28;20227;-74
2023/01/22 05:36:38;;;;;;;5.80;4.00;;;3.20;99.90;;;;;;5025553;28;20189;-74
2023/01/22 05:39:16;;;;;;;6.68;4.50;;;3.20;99.90;;;;;;5032814;28;20219;-74
2023/01/22 05:41:44;;;;;;;5.93;4.50;;;3.20;99.90;;;;;;5017871;28;20265;-75
2023/01/22 05:44:14;;;;;;;6.97;4.90;;;3.20;99.90;;;;;;5043569;28;20215;-74
2023/01/22 05:46:49;;;;;;;5.10;3.58;;;3.20;99.90;;;;;;5029380;28;20209;-74
2023/01/22 05:49:41;;;;;;;5.18;4.60;;;3.20;99.90;;;;;;5016587;28;20228;-75
2023/01/22 05:52:13;;;;;;;6.90;4.28;;;3.20;99.90;;;;;;5051462;28;20193;-73
2023/01/22 05:54:41;;;;;;;6.03;4.60;;;3.20;99.90;;;;;;5026861;28;20217;-74
2023/01/22 05:57:09;;;;;;;5.45;4.40;;;3.20;99.90;;;;;;5021480;28;20188;-75
2023/01/22 05:59:39;;;;;;;6.00;4.45;;;3.20;99.90;;;;;;5035414;28;20354;-75
2023/01/22 06:02:08;;;;;;;5.10;3.75;;;3.20;99.90;;;;;;5028557;28;20971;-74
2023/01/22 06:04:44;;;;;;;5.05;4.55;;;3.20;99.90;;;;;;5030475;28;20226;-74
2023/01/22 06:07:25;;;;;;;6.90;4.53;;;3.20;99.90;;;;;;5032170;28;20221;-75
2023/01/22 06:09:53;;;;;;;5.88;4.90;;;3.20;99.90;;;;;;5034406;28;20200;-75
2023/01/22 06:12:22;;;;;;;4.15;3.75;;;3.20;99.90;;;;;;5038139;28;20188;-74
2023/01/22 06:14:51;;;;;;;4.80;3.85;;;3.20;99.90;;;;;;5028160;28;20813;-75
2023/01/22 06:17:20;;;;;;;6.20;4.10;;;3.20;99.90;;;;;;5038443;28;20188;-74
2023/01/22 06:19:56;;;;;;;5.28;4.22;;;3.20;99.90;;;;;;5027555;28;20701;-74
2023/01/22 06:22:24;;;;;;;4.47;3.95;;;3.20;99.90;;;;;;5041445;28;20200;-75
2023/01/22 06:24:59;;;;;;;6.82;4.25;;;3.20;99.90;;;;;;5027274;28;20200;-75
2023/01/22 06:27:43;;;;;;;4.80;4.35;;;3.20;99.90;;;;;;5022007;28;20221;-74
2023/01/22 06:30:12;;;;;;;7.07;4.55;;;3.20;99.90;;;;;;5024635;28;20619;-74
2023/01/22 06:32:40;;;;;;;5.88;4.70;;;3.20;99.90;;;;;;5029575;28;20227;-74
2023/01/22 06:35:12;;;;;;;5.53;4.10;;;3.20;99.90;;;;;;5013868;28;20674;-75
2023/01/22 06:37:41;;;;;;;4.85;4.00;;;3.20;99.90;;;;;;5020378;28;20195;-74
2023/01/22 06:40:10;;;;;;;4.82;3.42;;;3.20;99.90;;;;;;5029755;28;20215;-75
2023/01/22 06:42:45;;;;;;;5.53;3.78;;;3.20;99.90;;;;;;5028406;28;20628;-74
2023/01/22 06:45:14;;;;;;;6.53;4.40;;;3.20;99.90;;;;;;5041271;28;20274;-75
2023/01/22 06:47:47;;;;;;;5.80;3.72;;;3.20;99.90;;;;;;5035008;28;20266;-75
2023/01/22 06:50:17;;;;;;;4.05;3.40;;;3.20;99.90;;;;;;5040893;28;20202;-74
2023/01/22 06:52:46;;;;;;;4.88;4.20;;;3.20;99.90;;;;;;5057276;28;20240;-74
2023/01/22 06:55:15;;;;;;;6.38;4.40;;;3.20;99.90;;;;;;5032027;28;20200;-73
2023/01/22 06:57:44;;;;;;;4.97;3.90;;;3.20;99.90;;;;;;5037323;28;20258;-74
2023/01/22 07:00:13;;;;;;;4.63;3.72;;;3.20;99.90;;;;;;5017947;28;20185;-75
2023/01/22 07:02:42;;;;;;;5.25;4.47;;;3.20;99.90;;;;;;5035389;28;20277;-74
2023/01/22 07:05:10;;;;;;;6.03;3.78;;;3.20;99.90;;;;;;5050524;28;20717;-74
2023/01/22 07:07:40;;;;;;;4.85;3.60;;;3.20;99.90;;;;;;5067142;28;20214;-74
2023/01/22 07:10:09;;;;;;;5.95;3.85;;;3.20;99.90;;;;;;5018793;28;20587;-75
2023/01/22 07:12:38;;;;;;;4.80;3.80;;;3.20;99.90;;;;;;5027453;28;20228;-75
2023/01/22 07:15:07;;;;;;;5.50;3.40;;;3.20;99.90;;;;;;5027092;28;20195;-75
2023/01/22 07:17:36;;;;;;;4.82;3.75;;;3.20;99.90;;;;;;5027012;28;20702;-74
2023/01/22 07:20:05;;;;;;;4.20;3.40;;;3.20;99.90;;;;;;5027611;28;20288;-74
2023/01/22 07:22:34;;;;;;;5.38;3.50;;;3.20;99.90;;;;;;5027536;28;20231;-74
2023/01/22 07:25:04;;;;;;;4.93;3.83;;;3.20;99.90;;;;;;5044931;28;22035;-74
2023/01/22 07:27:33;;;;;;;4.85;3.42;;;3.20;99.90;;;;;;5041904;28;20219;-74
2023/01/22 07:30:02;;;;;;;6.63;4.03;;;3.20;99.90;;;;;;5026960;28;20205;-74
2023/01/22 07:32:31;;;;;;;4.65;3.65;;;3.20;99.90;;;;;;5036108;28;20757;-74
2023/01/22 07:34:59;;;;;;;4.65;3.90;;;3.20;99.90;;;;;;5029680;28;20295;-75
2023/01/22 07:37:27;;;;;;;5.07;3.95;;;3.20;99.90;;;;;;5029036;28;20616;-75
2023/01/22 07:39:56;;;;;;;5.25;3.85;;;3.20;99.90;;;;;;5045277;28;20220;-73
2023/01/22 07:42:25;;;;;;;4.10;3.65;;;3.20;99.90;;;;;;5027961;28;20679;-74
2023/01/22 07:44:54;;;;;;;4.20;3.80;;;3.20;99.90;;;;;;5044888;28;20277;-73
2023/01/22 07:47:22;;;;;;;4.18;3.28;;;3.20;99.90;;;;;;5025012;28;20798;-74
2023/01/22 07:49:50;;;;;;;4.55;3.78;;;3.20;99.90;;;;;;5041174;28;20284;-74
2023/01/22 07:52:19;;;;;;;5.85;4.25;;;3.20;99.90;;;;;;5025116;28;20192;-74
2023/01/22 07:54:47;;;;;;;5.85;3.55;;;3.20;99.90;;;;;;5055500;28;20196;-74
2023/01/22 07:57:16;;;;;;;5.28;3.72;;;3.20;99.90;;;;;;5027166;28;20189;-74
2023/01/22 07:59:46;;;;;;;5.40;4.53;;;3.20;99.90;;;;;;5059030;28;21181;-75
2023/01/22 08:02:14;;;;;;;4.40;3.60;;;3.20;99.90;;;;;;5024805;28;20195;-72
2023/01/22 08:04:45;;;;;;;4.82;4.18;;;3.20;99.90;;;;;;5026734;28;20201;-74
2023/01/22 08:07:16;;;;;;;4.22;3.83;;;3.20;99.90;;;;;;5045378;28;20612;-74
2023/01/22 08:09:45;;;;;;;5.68;4.35;;;3.20;99.90;;;;;;5044605;28;20201;-75
2023/01/22 08:12:13;;;;;;;3.85;3.47;;;3.20;99.90;;;;;;5026775;28;20662;-74
2023/01/22 08:14:42;;;;;;;5.57;4.25;;;3.20;99.90;;;;;;5025682;28;20232;-74
2023/01/22 08:17:11;;;;;;;4.82;4.32;;;3.20;99.90;;;;;;5023753;28;20191;-74
2023/01/22 08:19:40;;;;;;;5.88;4.25;;;3.20;99.90;;;;;;5027366;28;20223;-74
2023/01/22 08:22:08;;;;;;;4.00;3.47;;;3.20;99.90;;;;;;5026147;28;20216;-74
2023/01/22 08:24:38;;;;;;;5.25;3.58;;;3.20;99.90;;;;;;5023650;28;20224;-75
2023/01/22 08:27:07;;;;;;;3.60;3.28;;;3.20;99.90;;;;;;5042633;28;20689;-73
2023/01/22 08:29:35;;;;;;;3.35;3.00;;;3.20;99.90;;;;;;5043747;28;20282;-75
2023/01/22 08:32:03;;;;;;;3.55;2.95;;;3.20;99.90;;;;;;5024793;28;20895;-74
2023/01/22 08:34:33;;;;;;;3.55;2.92;;;3.20;99.90;;;;;;5025435;28;20221;-74
2023/01/22 08:37:02;;;;;;;6.15;3.88;;;3.20;99.90;;;;;;5026274;28;20242;-74
2023/01/22 08:39:30;;;;;;;4.40;4.00;;;3.20;99.90;;;;;;5051510;28;20214;-74
2023/01/22 08:41:59;;;;;;;7.70;4.30;;;3.20;99.90;;;;;;5022286;28;21597;-75
2023/01/22 08:44:27;;;;;;;4.55;3.60;;;3.20;99.90;;;;;;5053227;28;20220;-73
2023/01/22 08:46:56;;;;;;;4.68;4.10;;;3.20;99.90;;;;;;5028041;28;20207;-74
2023/01/22 08:49:25;;;;;;;3.95;3.58;;;3.20;99.90;;;;;;5025503;28;20227;-73
2023/01/22 08:51:55;;;;;;;5.32;4.25;;;3.20;99.90;;;;;;5040892;28;20675;-75
2023/01/22 08:54:25;;;;;;;4.15;3.75;;;3.20;99.90;;;;;;5026008;28;20664;-73
2023/01/22 08:56:53;;;;;;;5.43;3.42;;;3.20;99.90;;;;;;5047723;28;20204;-74
2023/01/22 08:59:22;;;;;;;5.25;3.75;;;3.20;99.90;;;;;;5000532;28;20213;-74
2023/01/22 09:01:50;;;;;;;3.92;3.00;;;3.20;99.90;;;;;;5028589;28;20587;-75
2023/01/22 09:04:19;;;;;;;5.63;4.28;;;3.20;99.90;;;;;;5026067;28;20243;-74
2023/01/22 09:06:48;;;;;;;4.43;3.70;;;3.20;99.90;;;;;;5024458;28;20255;-75
2023/01/22 09:09:17;;;;;;;5.38;3.70;;;3.20;99.90;;;;;;5030782;28;20221;-75
2023/01/22 09:11:46;;;;;;;5.15;3.30;;;3.20;99.90;;;;;;5025429;28;20224;-75
2023/01/22 09:14:14;;;;;;;5.00;3.75;;;3.20;99.90;;;;;;5010164;28;20263;-74
2023/01/22 09:16:43;;;;;;;4.88;3.40;;;3.20;99.90;;;;;;5018047;28;20251;-74
2023/01/22 09:19:11;;;;;;;4.10;3.70;;;3.20;99.90;;;;;;5017983;28;20407;-74
2023/01/22 09:21:40;;;;;;;4.00;3.20;;;3.20;99.90;;;;;;5041057;28;20204;-73
2023/01/22 09:24:09;;;;;;;5.13;4.13;;;3.20;99.90;;;;;;5052961;28;20237;-74
2023/01/22 09:26:39;;;;;;;4.25;3.47;;;3.20;99.90;;;;;;5019713;28;20185;-74
2023/01/22 09:29:07;;;;;;;4.53;3.40;;;3.20;99.90;;;;;;5022470;28;20224;-74
2023/01/22 09:31:37;;;;;;;3.67;3.20;;;3.20;99.90;;;;;;5025787;28;20564;-74
2023/01/22 09:34:05;;;;;;;4.25;3.30;;;3.20;99.90;;;;;;5033083;28;20223;-74
2023/01/22 09:36:34;;;;;;;4.15;3.63;;;3.20;99.90;;;;;;5052732;28;20282;-74
2023/01/22 09:39:02;;;;;;;4.07;2.90;;;3.20;99.90;;;;;;5032994;28;20778;-74
2023/01/22 09:41:34;;;;;;;3.80;2.75;;;3.20;99.90;;;;;;5032749;28;20549;-74
2023/01/22 09:44:10;;;;;;;3.58;3.20;;;3.20;99.90;;;;;;5013202;28;21054;-73
2023/01/22 09:46:42;;;;;;;4.30;3.75;;;3.20;99.90;;;;;;5037907;28;20303;-74
2023/01/22 09:49:15;;;;;;;4.35;3.20;;;3.20;99.90;;;;;;5050339;28;20256;-75
2023/01/22 09:51:46;;;;;;;3.70;3.05;;;3.20;99.90;;;;;;5055270;28;20742;-74
2023/01/22 09:54:16;;;;;;;3.65;3.00;;;3.20;99.90;;;;;;5047356;28;20267;-74
2023/01/22 09:56:48;;;;;;;4.45;3.80;;;3.20;99.90;;;;;;5013920;28;20613;-74
2023/01/22 09:59:20;;;;;;;3.78;3.05;;;3.20;99.90;;;;;;5016457;28;20261;-74
2023/01/22 10:01:53;;;;;;;7.75;6.07;;;3.20;99.90;;;;;;5020675;28;20246;-74
2023/01/22 10:04:34;;;;;;;13.43;9.63;;;3.20;99.90;;;;;;5024402;28;20232;-74
2023/01/22 10:07:06;;;;;;;13.10;10.55;;;3.20;99.90;;;;;;5021251;28;20196;-74
2023/01/22 10:09:38;;;;;;;15.68;11.27;;;3.20;99.90;;;;;;5016345;28;20229;-74
2023/01/22 10:13:13;;;;;;;15.70;11.75;;;3.20;99.90;;;;;;5023688;28;20218;-74
2023/01/22 10:15:43;;;;;;;15.02;11.93;;;3.20;99.90;;;;;;5050686;28;20298;-74
2023/01/22 10:18:22;;;;;;;15.48;12.10;;;3.10;99.90;;;;;;5048418;28;20224;-73
2023/01/22 10:20:53;;;;;;;18.88;11.70;;;3.10;99.90;;;;;;5039239;28;20267;-74
2023/01/22 10:23:25;;;;;;;17.98;12.95;;;3.10;99.90;;;;;;5021821;28;20225;-74
2023/01/22 10:25:59;;;;;;;17.08;12.35;;;3.00;99.90;;;;;;5053674;28;20722;-74
2023/01/22 10:28:28;;;;;;;16.13;10.35;;;3.10;99.90;;;;;;5040156;28;20309;-74
2023/01/22 10:30:58;;;;;;;16.60;11.70;;;3.10;99.90;;;;;;5059109;28;20294;-73
2023/01/22 10:33:28;;;;;;;14.35;10.43;;;3.10;99.90;;;;;;5030192;28;20220;-74
2023/01/22 10:35:57;;;;;;;16.25;10.93;;;3.10;99.90;;;;;;5041480;28;20682;-74
2023/01/22 10:38:28;;;;;;;14.65;11.25;;;3.10;99.90;;;;;;5044095;28;20274;-74
2023/01/22 10:40:58;;;;;;;17.90;10.65;;;3.10;99.90;;;;;;5038382;28;20201;-74
2023/01/22 10:43:32;;;;;;;12.05;9.20;;;3.20;99.90;;;;;;5037514;28;20220;-74
2023/01/22 10:46:06;;;;;;;13.55;10.05;;;3.20;99.90;;;;;;5038857;28;20269;-74
2023/01/22 10:48:34;;;;;;;13.40;9.88;;;3.20;99.90;;;;;;5030643;28;20227;-74
2023/01/22 10:51:13;;;;;;;13.15;9.95;;;3.20;99.90;;;;;;5031281;28;20423;-74
2023/01/22 10:53:47;;;;;;;13.52;10.00;;;3.20;99.90;;;;;;5042960;28;20594;-74
2023/01/22 10:56:27;;;;;;;13.52;9.88;;;3.20;99.90;;;;;;5027245;28;20660;-74
2023/01/22 10:58:57;;;;;;;15.75;9.95;;;3.20;99.90;;;;;;5045560;28;20225;-74
2023/01/22 11:01:32;;;;;;;18.38;10.95;;;3.20;99.90;;;;;;5022316;28;20285;-75
2023/01/22 11:04:12;;;;;;;13.93;10.10;;;3.20;99.90;;;;;;5043215;28;20227;-73
2023/01/22 11:06:45;;;;;;;11.18;9.50;;;3.20;99.90;;;;;;5023883;28;20197;-74
2023/01/22 11:09:17;;;;;;;11.90;9.20;;;3.20;99.90;;;;;;5028235;28;20311;-74
2023/01/22 11:11:50;;;;;;;12.45;9.40;;;3.20;99.90;;;;;;5057246;28;20279;-73
2023/01/22 11:14:23;;;;;;;11.02;8.52;;;3.20;99.90;;;;;;5023691;28;20261;-72
2023/01/22 11:16:56;;;;;;;12.48;9.25;;;3.20;99.90;;;;;;5054726;28;20197;-73
2023/01/22 11:19:34;;;;;;;12.65;8.45;;;3.20;99.90;;;;;;5028300;28;20224;-73
2023/01/22 11:22:20;;;;;;;11.70;9.00;;;3.20;99.90;;;;;;5027690;28;20189;-74
2023/01/22 11:24:48;;;;;;;10.07;7.97;;;3.30;99.90;;;;;;5026483;28;20270;-73
2023/01/22 11:27:49;;;;;;;13.38;8.48;;;3.20;99.90;;;;;;5038127;28;20200;-74
2023/01/22 11:30:41;;;;;;;11.30;8.45;;;3.20;99.90;;;;;;5053443;28;20248;-73
2023/01/22 11:33:22;;;;;;;9.60;7.43;;;3.30;99.90;;;;;;5023915;28;20212;-74
2023/01/22 11:35:55;;;;;;;9.15;7.00;;;3.30;99.90;;;;;;5028859;28;20279;-74
2023/01/22 11:38:38;;;;;;;9.55;7.82;;;3.20;99.90;;;;;;5027728;28;20880;-74
2023/01/22 11:41:20;;;;;;;10.13;7.72;;;3.30;99.90;;;;;;5024283;28;20277;-74
2023/01/22 11:44:06;;;;;;;10.55;7.70;;;3.30;99.90;;;;;;5025794;28;20319;-74
2023/01/22 11:46:47;;;;;;;11.57;7.75;;;3.20;99.90;;;;;;5021599;28;20200;-74
2023/01/22 11:49:28;;;;;;;12.15;8.43;;;3.20;99.90;;;;;;5049312;28;20221;-74
2023/01/22 11:52:09;;;;;;;8.75;7.15;;;3.30;99.90;;;;;;5055349;28;20288;-74
2023/01/22 11:54:52;;;;;;;9.88;7.47;;;3.30;99.90;;;;;;5020130;28;20577;-73
2023/01/22 11:57:27;;;;;;;9.40;8.20;;;3.30;99.90;;;;;;5020675;28;20667;-74
2023/01/22 12:00:28;;;;;;;11.07;7.78;;;3.30;99.90;;;;;;5025372;28;20210;-74
2023/01/22 12:03:22;;;;;;;11.77;7.43;;;3.30;99.90;;;;;;5019602;28;20232;-74
2023/01/22 12:06:11;;;;;;;13.57;7.55;;;3.30;99.90;;;;;;5058870;28;20208;-74
2023/01/22 12:08:50;;;;;;;8.52;6.10;;;3.30;99.90;;;;;;5053010;28;20266;-74
2023/01/22 12:11:40;;;;;;;10.77;7.85;;;3.30;99.90;;;;;;5019681;28;20753;-74
2023/01/22 12:14:25;;;;;;;9.27;6.38;;;3.30;99.90;;;;;;5053121;28;20220;-73
2023/01/22 12:17:00;;;;;;;8.52;6.32;;;3.30;99.90;;;;;;5026752;28;20204;-74
2023/01/22 12:19:55;;;;;;;10.45;8.00;;;3.30;99.90;;;;;;5025756;28;20319;-74
2023/01/22 12:22:38;;;;;;;8.80;7.18;;;3.30;99.90;;;;;;5054489;28;20188;-74
2023/01/22 12:25:17;;;;;;;8.73;6.50;;;3.30;99.90;;;;;;5023995;28;22074;-74
2023/01/22 12:27:52;;;;;;;9.15;6.78;;;3.30;99.90;;;;;;5025428;28;20339;-75
2023/01/22 12:30:25;;;;;;;8.43;6.32;;;3.30;99.90;;;;;;5027548;28;20657;-74
2023/01/22 12:32:58;;;;;;;9.02;8.13;;;3.30;99.90;;;;;;5025431;28;20604;-74
2023/01/22 12:35:30;;;;;;;8.15;6.20;;;3.30;99.90;;;;;;5026659;28;20201;-74
2023/01/22 12:38:08;;;;;;;8.60;6.82;;;3.30;99.90;;;;;;5024476;28;20908;-74
2023/01/22 12:40:59;;;;;;;8.13;5.60;;;3.30;99.90;;;;;;5048703;28;20203;-74
2023/01/22 12:43:33;;;;;;;8.15;6.57;;;3.30;99.90;;;;;;5052905;28;20228;-74
2023/01/22 12:46:10;;;;;;;8.77;6.60;;;3.30;99.90;;;;;;5024743;28;20291;-74
2023/01/22 12:48:48;;;;;;;8.30;6.65;;;3.30;99.90;;;;;;5053320;28;20307;-74
2023/01/22 12:51:26;;;;;;;8.75;6.97;;;3.30;99.90;;;;;;5044510;28;20224;-73
2023/01/22 12:54:07;;;;;;;8.93;6.55;;;3.30;99.90;;;;;;5042563;28;20228;-74
2023/01/22 12:56:35;;;;;;;6.75;6.13;;;3.30;99.90;;;;;;5024146;28;20200;-73
2023/01/22 12:59:03;;;;;;;6.78;6.07;;;3.30;99.90;;;;;;5021012;28;20308;-74
2023/01/22 13:01:35;;;;;;;7.05;6.15;;;3.30;99.90;;;;;;5025061;28;20204;-74
2023/01/22 13:04:06;;;;;;;7.53;6.75;;;3.30;99.90;;;;;;5024120;28;20220;-73
2023/01/22 13:06:38;;;;;;;8.10;6.30;;;3.30;99.90;;;;;;5043668;28;20687;-74
2023/01/22 13:09:24;;;;;;;7.57;6.82;;;3.30;99.90;;;;;;5024531;28;20228;-74
2023/01/22 13:11:52;;;;;;;7.03;6.32;;;3.30;99.90;;;;;;5046193;28;20690;-74
2023/01/22 13:14:25;;;;;;;7.22;6.45;;;3.30;99.90;;;;;;5042161;28;20653;-74
2023/01/22 13:16:58;;;;;;;8.05;6.60;;;3.30;99.90;;;;;;5022954;28;20201;-73
2023/01/22 13:19:29;;;;;;;10.25;6.07;;;3.30;99.90;;;;;;5024301;28;20227;-73
2023/01/22 13:21:59;;;;;;;7.90;6.15;;;3.30;99.90;;;;;;5032591;28;20267;-74
2023/01/22 13:24:29;;;;;;;6.50;5.80;;;3.30;99.90;;;;;;5025128;28;20216;-72
2023/01/22 13:27:00;;;;;;;6.68;5.93;;;3.30;99.90;;;;;;5026972;28;20690;-73
2023/01/22 13:29:31;;;;;;;8.60;6.05;;;3.30;99.90;;;;;;5025692;28;20274;-74